Terminal Aerodrome Forecast
Issued by NWS Milwaukee/Sullivan, WI

Home | Current Version | Previous Version | Text Only | Print | Product List | Glossary On
Versions: 1 2 3 4 5 6 7 8 9 10 11 12 13 14 15 16 17 18 19 20 21 22 23 24 25
000
FTUS43 KMKX 211138
TAFMSN
TAF
KMSN 211138Z 2112/2212 18005KT P6SM SCT070 BKN150
     FM211400 18007KT P6SM VCSH SCT035 OVC060
      TEMPO 2114/2118 5SM -SHRA BKN035
     FM211800 25008KT 6SM -SHRA OVC040
      TEMPO 2118/2122 4SM -TSRA OVC030CB
     FM212200 30008KT P6SM OVC040
     FM220200 33009KT P6SM FEW040=

USA.gov is the U.S. government's official web portal to all federal, state and local government web resources and services.